createdAt,value
2019-02-28T00:10:49.698Z,21.77
2019-02-28T00:13:21.435Z,24.17
2019-02-28T00:16:11.986Z,23.13
2019-02-28T00:18:39.140Z,35.77
2019-02-28T00:21:47.091Z,34.97
2019-02-28T00:24:14.314Z,22.00
2019-02-28T00:27:22.324Z,19.83
2019-02-28T00:29:49.518Z,19.40
2019-02-28T00:35:59.354Z,22.47
2019-02-28T00:42:00.926Z,19.30
2019-02-28T00:44:31.222Z,24.40
2019-02-28T00:47:07.349Z,23.53
2019-02-28T00:53:08.145Z,17.60
2019-02-28T00:55:35.615Z,24.10
2019-02-28T01:01:23.301Z,21.40
2019-02-28T01:03:50.822Z,26.13
2019-02-28T01:09:19.606Z,22.40
2019-02-28T01:11:48.654Z,21.80
2019-02-28T01:14:35.828Z,21.77
2019-02-28T01:21:02.917Z,18.53
2019-02-28T01:23:30.226Z,16.77
2019-02-28T01:26:18.934Z,21.27
2019-02-28T01:28:46.106Z,22.23
2019-02-28T01:31:54.122Z,20.90
2019-02-28T01:34:21.283Z,28.93
2019-02-28T01:40:30.434Z,25.63
2019-02-28T01:42:57.624Z,35.73
2019-02-28T01:45:24.813Z,25.67
2019-02-28T01:48:32.765Z,21.80
2019-02-28T01:54:33.444Z,23.03
2019-02-28T01:57:00.628Z,23.60
2019-02-28T01:59:39.352Z,25.57
2019-02-28T02:11:49.603Z,22.77
2019-02-28T02:14:16.849Z,18.03
2019-02-28T02:16:43.989Z,19.90
2019-02-28T02:22:11.913Z,22.63
2019-02-28T02:33:52.442Z,21.17
2019-02-28T02:36:38.467Z,18.47
2019-02-28T02:42:11.308Z,20.13
2019-02-28T02:44:57.279Z,24.90
2019-02-28T02:47:31.328Z,19.40
2019-02-28T02:50:01.397Z,21.97
2019-02-28T02:55:28.028Z,21.50
2019-02-28T02:57:57.166Z,24.80
2019-02-28T03:00:24.351Z,20.13
2019-02-28T03:02:51.414Z,19.97
2019-02-28T03:05:18.609Z,20.13
2019-02-28T03:07:46.091Z,19.97
2019-02-28T03:10:17.519Z,21.27
2019-02-28T03:13:04.853Z,21.87
2019-02-28T03:15:38.036Z,20.87
2019-02-28T03:21:06.388Z,25.13
2019-02-28T03:23:37.911Z,19.90
2019-02-28T03:26:12.454Z,27.77
2019-02-28T03:28:59.501Z,20.50
2019-02-28T03:32:07.522Z,26.17
2019-02-28T03:34:34.998Z,26.57
2019-02-28T03:43:26.612Z,26.53
2019-02-28T03:45:54.175Z,17.50
2019-02-28T03:49:02.169Z,22.40
2019-02-28T03:51:29.664Z,26.13
2019-02-28T03:54:45.532Z,20.77
2019-02-28T04:03:48.058Z,35.67
2019-02-28T04:09:17.895Z,23.23
2019-02-28T04:11:56.619Z,19.30
2019-02-28T04:14:23.831Z,23.93
2019-02-28T04:16:54.049Z,22.60
2019-02-28T04:19:29.744Z,22.10
2019-02-28T04:21:56.922Z,24.87
2019-02-28T04:24:24.077Z,23.37
2019-02-28T04:29:52.638Z,22.57
2019-02-28T04:32:26.623Z,19.90
2019-02-28T04:34:54.635Z,24.70
2019-02-28T04:37:21.815Z,24.40
2019-02-28T04:39:48.961Z,32.03
2019-02-28T04:42:18.016Z,22.33
2019-02-28T04:45:04.627Z,24.53
2019-02-28T04:47:51.311Z,18.83
2019-02-28T04:50:18.467Z,18.63
2019-02-28T04:53:05.140Z,19.87
2019-02-28T04:55:34.269Z,20.87
2019-02-28T04:58:10.947Z,19.50
2019-02-28T05:00:38.878Z,53.13
2019-02-28T05:06:28.180Z,23.50
2019-02-28T05:12:29.326Z,20.77
2019-02-28T05:14:58.511Z,21.10
2019-02-28T05:23:35.992Z,17.60
2019-02-28T05:26:23.515Z,18.27
2019-02-28T05:28:58.629Z,31.17
2019-02-28T05:31:27.110Z,19.83
2019-02-28T05:34:23.972Z,24.73
2019-02-28T05:36:51.154Z,24.83
2019-02-28T05:39:18.299Z,23.33
2019-02-28T05:41:49.447Z,18.63
2019-02-28T05:44:37.440Z,20.13
2019-02-28T05:47:11.660Z,25.60
2019-02-28T05:49:40.658Z,57.00
2019-02-28T05:52:17.410Z,24.83
2019-02-28T05:54:47.207Z,20.97
2019-02-28T05:57:33.806Z,35.67
2019-02-28T06:00:01.787Z,25.07
2019-02-28T06:02:39.831Z,24.17
2019-02-28T06:08:40.943Z,25.73
2019-02-28T06:11:08.285Z,23.23
2019-02-28T06:13:36.974Z,20.73
2019-02-28T06:16:14.343Z,24.53
2019-02-28T06:18:41.431Z,25.87
2019-02-28T06:24:12.808Z,21.40
2019-02-28T06:26:45.294Z,22.63
2019-02-28T06:29:12.915Z,28.27
2019-02-28T06:35:00.636Z,28.17
2019-02-28T06:37:28.182Z,21.43
2019-02-28T06:39:58.052Z,24.20
2019-02-28T06:42:30.803Z,28.03
2019-02-28T06:44:58.731Z,21.03
2019-02-28T06:47:49.590Z,19.70
2019-02-28T06:53:43.023Z,32.27
2019-02-28T06:56:10.267Z,22.93
2019-02-28T06:58:37.486Z,22.17
2019-02-28T07:01:04.748Z,23.40
2019-02-28T07:03:31.937Z,26.60
2019-02-28T07:06:01.196Z,22.00
2019-02-28T07:09:08.957Z,25.83
2019-02-28T07:11:36.146Z,20.47
2019-02-28T07:14:03.617Z,42.73
2019-02-28T07:16:34.496Z,28.00
2019-02-28T07:22:55.645Z,27.83
2019-02-28T07:28:37.805Z,23.07
2019-02-28T07:34:34.632Z,28.97
2019-02-28T07:37:42.640Z,29.10
2019-02-28T07:40:41.951Z,28.60
2019-02-28T07:43:12.279Z,24.07
2019-02-28T07:48:37.979Z,18.70
2019-02-28T07:54:06.452Z,25.33
2019-02-28T07:56:53.116Z,19.93
2019-02-28T07:59:20.354Z,27.73
2019-02-28T08:02:28.354Z,23.53
2019-02-28T08:04:55.981Z,22.00
2019-02-28T08:07:23.162Z,17.30
2019-02-28T08:09:50.372Z,17.53
2019-02-28T08:12:17.636Z,21.60
2019-02-28T08:14:47.089Z,15.70
2019-02-28T08:17:43.901Z,20.77
2019-02-28T08:20:59.635Z,16.30
2019-02-28T08:32:30.718Z,25.70
2019-02-28T08:34:59.537Z,16.30
2019-02-28T08:40:57.911Z,17.10
2019-02-28T08:46:26.197Z,27.40
2019-02-28T08:48:53.519Z,21.53
2019-02-28T08:54:26.269Z,17.27
2019-02-28T08:57:00.512Z,17.27
2019-02-28T08:59:27.742Z,17.50
2019-02-28T09:01:54.948Z,26.10
2019-02-28T09:04:22.115Z,16.50
2019-02-28T09:06:49.650Z,16.50
2019-02-28T09:09:16.882Z,19.60
2019-02-28T09:12:24.929Z,18.57
2019-02-28T09:14:55.403Z,20.63
2019-02-28T09:17:31.142Z,17.77
2019-02-28T09:23:34.464Z,26.73
2019-02-28T09:26:51.662Z,28.17
2019-02-28T09:29:21.194Z,25.77
2019-02-28T09:32:27.164Z,24.60
2019-02-28T09:34:54.657Z,34.60
2019-02-28T09:37:21.818Z,36.27
2019-02-28T09:40:08.566Z,29.13
2019-02-28T09:43:16.579Z,34.33
2019-02-28T09:45:43.823Z,53.67
2019-02-28T09:51:19.285Z,33.00
2019-02-28T09:53:47.304Z,36.50
2019-02-28T09:56:21.684Z,38.37
2019-02-28T09:58:49.613Z,43.60
2019-02-28T10:01:27.876Z,52.83
2019-02-28T10:07:28.847Z,49.17
2019-02-28T10:09:56.697Z,51.43
2019-02-28T10:12:23.880Z,36.50
2019-02-28T10:15:10.737Z,38.23
2019-02-28T10:17:37.819Z,45.93
2019-02-28T10:23:06.739Z,35.60
2019-02-28T10:25:34.004Z,39.63
2019-02-28T10:28:02.697Z,41.83
2019-02-28T10:30:36.499Z,39.80
2019-02-28T10:36:38.093Z,47.03
2019-02-28T10:42:07.983Z,36.40
2019-02-28T10:44:49.051Z,39.70
2019-02-28T10:47:16.182Z,40.23
2019-02-28T10:49:43.480Z,42.47
2019-02-28T10:52:10.697Z,47.47
2019-02-28T10:54:37.912Z,39.90
2019-02-28T10:57:06.125Z,51.03
2019-02-28T10:59:40.893Z,54.40
2019-02-28T11:08:21.819Z,43.10
2019-02-28T11:14:20.632Z,45.33
2019-02-28T11:16:47.884Z,43.43
2019-02-28T11:19:18.613Z,37.63
2019-02-28T11:24:29.971Z,62.53
2019-02-28T11:26:57.242Z,45.97
2019-02-28T11:29:24.408Z,44.80
2019-02-28T11:32:32.471Z,48.03
2019-02-28T11:34:59.699Z,43.80
2019-02-28T11:38:07.853Z,36.93
2019-02-28T11:40:35.405Z,40.50
2019-02-28T11:43:43.527Z,46.43
2019-02-28T11:49:31.003Z,62.03
2019-02-28T11:51:58.362Z,48.60
2019-02-28T11:54:26.196Z,40.77
2019-02-28T11:57:37.774Z,44.03
2019-02-28T12:00:32.585Z,40.20
2019-02-28T12:03:46.062Z,41.03
2019-02-28T12:06:13.302Z,41.23
2019-02-28T12:08:41.601Z,40.03
2019-02-28T12:11:28.545Z,40.97
2019-02-28T12:13:56.100Z,44.27
2019-02-28T12:16:44.698Z,43.07
2019-02-28T12:19:31.342Z,45.83
2019-02-28T12:22:00.139Z,45.63
2019-02-28T12:27:55.276Z,55.27
2019-02-28T12:33:37.230Z,39.37
2019-02-28T12:36:04.276Z,30.50
2019-02-28T12:38:31.475Z,48.33
2019-02-28T12:40:58.664Z,52.97
2019-02-28T12:43:25.854Z,33.80
2019-02-28T12:45:53.644Z,36.47
2019-02-28T12:48:31.602Z,44.47
2019-02-28T12:50:58.716Z,35.57
2019-02-28T12:53:38.035Z,43.97
2019-02-28T12:56:05.220Z,33.97
2019-02-28T12:58:38.758Z,44.20
2019-02-28T13:04:03.399Z,37.73
2019-02-28T13:06:37.150Z,33.63
2019-02-28T13:12:08.153Z,40.37
2019-02-28T13:14:55.201Z,50.07
2019-02-28T13:17:54.287Z,48.97
2019-02-28T13:23:42.189Z,37.23
2019-02-28T13:26:09.365Z,34.40
2019-02-28T13:28:36.538Z,35.83
2019-02-28T13:34:20.466Z,28.40
2019-02-28T13:37:19.569Z,35.70
2019-02-28T13:39:58.780Z,41.77
2019-02-28T13:46:17.693Z,27.60
2019-02-28T13:52:20.506Z,30.13
2019-02-28T13:55:14.335Z,25.80
2019-02-28T13:57:48.883Z,31.60
2019-02-28T14:00:30.287Z,25.37
2019-02-28T14:03:11.297Z,30.37
2019-02-28T14:08:59.446Z,30.40
2019-02-28T14:14:07.691Z,29.83
2019-02-28T14:16:55.204Z,28.10
2019-02-28T14:20:05.047Z,42.63
2019-02-28T14:25:52.497Z,35.57
2019-02-28T14:28:19.711Z,28.40
2019-02-28T14:30:46.887Z,23.87
2019-02-28T14:33:16.224Z,23.30
2019-02-28T14:39:35.178Z,28.23
2019-02-28T14:42:03.028Z,28.57
2019-02-28T14:44:51.235Z,30.50
2019-02-28T14:47:18.331Z,27.17
2019-02-28T14:50:26.349Z,23.40
2019-02-28T14:56:28.033Z,34.63
2019-02-28T14:58:57.515Z,26.90
2019-02-28T15:01:30.512Z,27.60
2019-02-28T15:03:57.974Z,24.60
2019-02-28T15:06:26.363Z,24.40
2019-02-28T15:09:00.393Z,27.27
2019-02-28T15:11:48.199Z,39.83
2019-02-28T15:14:22.525Z,35.67
2019-02-28T15:16:49.741Z,43.27
2019-02-28T15:22:21.005Z,48.03
2019-02-28T15:24:56.842Z,37.17
2019-02-28T15:27:24.469Z,38.73
2019-02-28T15:30:11.489Z,37.50
2019-02-28T15:32:38.707Z,33.97
2019-02-28T15:35:49.838Z,35.87
2019-02-28T15:41:24.525Z,39.47
2019-02-28T15:47:22.821Z,38.03
2019-02-28T15:50:51.701Z,57.27
2019-02-28T15:53:25.738Z,35.80
2019-02-28T15:55:52.950Z,37.70
2019-02-28T15:58:20.505Z,37.80
2019-02-28T16:00:47.952Z,35.60
2019-02-28T16:03:16.773Z,36.47
2019-02-28T16:05:56.218Z,42.10
2019-02-28T16:11:53.578Z,34.23
2019-02-28T16:23:43.505Z,34.90
2019-02-28T16:26:11.035Z,41.43
2019-02-28T16:28:39.527Z,36.10
2019-02-28T16:31:13.575Z,38.27
2019-02-28T16:34:08.037Z,48.80
2019-02-28T16:36:49.452Z,39.40
2019-02-28T16:42:28.913Z,36.70
2019-02-28T16:44:56.143Z,40.77
2019-02-28T16:47:24.353Z,53.00
2019-02-28T16:49:59.466Z,62.77
2019-02-28T16:52:28.479Z,49.50
2019-02-28T16:54:56.268Z,38.53
2019-02-28T16:58:15.108Z,77.40
2019-02-28T17:01:01.844Z,49.63
2019-02-28T17:03:29.044Z,57.83
2019-02-28T17:09:45.822Z,53.20
2019-02-28T17:18:03.438Z,57.37
2019-02-28T17:21:16.864Z,63.20
2019-02-28T17:23:47.238Z,57.13
2019-02-28T17:26:14.773Z,61.47
2019-02-28T17:29:01.537Z,53.17
2019-02-28T17:31:49.320Z,42.00
2019-02-28T17:34:36.092Z,39.83
2019-02-28T17:43:24.063Z,17.43
2019-02-28T17:45:58.196Z,18.47
2019-02-28T17:49:06.120Z,16.83
2019-02-28T17:51:58.567Z,19.30
2019-02-28T17:55:09.892Z,15.03
2019-02-28T17:57:59.882Z,15.50
2019-02-28T18:04:45.818Z,14.07
2019-02-28T18:07:52.212Z,8.80
2019-02-28T18:10:59.166Z,13.23
2019-02-28T18:14:09.288Z,11.27
2019-02-28T18:17:17.343Z,14.70
2019-02-28T18:20:25.868Z,21.83
2019-02-28T18:23:38.866Z,21.93
2019-02-28T18:26:45.566Z,15.80
2019-02-28T18:29:52.490Z,17.00
2019-02-28T18:35:40.792Z,18.27
2019-02-28T18:38:08.274Z,17.80
2019-02-28T18:47:20.801Z,16.37
2019-02-28T18:50:08.016Z,13.63
2019-02-28T18:53:16.186Z,15.43
2019-02-28T18:59:17.278Z,18.33
2019-02-28T19:07:59.713Z,19.23
2019-02-28T19:10:27.034Z,15.77
2019-02-28T19:12:54.573Z,20.73
2019-02-28T19:15:21.899Z,18.13
2019-02-28T19:18:08.651Z,18.93
2019-02-28T19:20:48.705Z,21.17
2019-02-28T19:26:36.134Z,20.90
2019-02-28T19:32:24.975Z,18.13
2019-02-28T19:37:54.390Z,17.70
2019-02-28T19:46:23.869Z,20.00
2019-02-28T20:00:55.671Z,22.63
2019-02-28T20:03:23.576Z,23.47
2019-02-28T20:06:02.847Z,20.70
2019-02-28T20:11:56.494Z,37.10
2019-02-28T20:14:23.667Z,25.03
2019-02-28T20:16:50.917Z,25.60
2019-02-28T20:19:18.161Z,19.57
2019-02-28T20:22:17.268Z,22.70
2019-02-28T20:24:45.006Z,26.20
2019-02-28T20:27:12.859Z,21.67
2019-02-28T20:32:41.346Z,23.10
2019-02-28T20:35:10.839Z,36.43
2019-02-28T20:38:18.886Z,32.23
2019-02-28T20:40:46.207Z,25.03
2019-02-28T20:43:13.480Z,19.23
2019-02-28T20:48:33.973Z,22.53
2019-02-28T20:51:13.130Z,22.70
2019-02-28T21:00:46.963Z,23.30
2019-02-28T21:09:48.457Z,24.40
2019-02-28T21:12:15.654Z,24.07
2019-02-28T21:14:42.883Z,26.37
2019-02-28T21:17:10.493Z,24.23
2019-02-28T21:19:37.773Z,26.80
2019-02-28T21:22:05.493Z,35.87
2019-02-28T21:24:32.877Z,28.10
2019-02-28T21:27:00.423Z,31.00
2019-02-28T21:29:27.642Z,30.47
2019-02-28T21:31:54.980Z,28.80
2019-02-28T21:34:22.259Z,26.90
2019-02-28T21:36:49.502Z,26.47
2019-02-28T21:39:16.814Z,44.33
2019-02-28T21:41:44.476Z,24.17
2019-02-28T21:44:11.817Z,23.77
2019-02-28T21:46:39.094Z,25.63
2019-02-28T21:49:06.310Z,24.37
2019-02-28T21:51:33.550Z,23.70
2019-02-28T21:54:00.804Z,28.23
2019-02-28T21:56:28.078Z,25.60
2019-02-28T21:58:55.610Z,22.13
2019-02-28T22:01:22.966Z,26.93
2019-02-28T22:03:50.448Z,25.13
2019-02-28T22:06:18.028Z,24.07
2019-02-28T22:08:45.620Z,26.97
2019-02-28T22:11:13.422Z,24.60
2019-02-28T22:13:40.624Z,24.20
2019-02-28T22:16:07.856Z,25.97
2019-02-28T22:18:35.065Z,29.23
2019-02-28T22:21:02.320Z,27.63
2019-02-28T22:23:29.767Z,27.67
2019-02-28T22:25:56.983Z,22.40
2019-02-28T22:28:24.263Z,33.47
2019-02-28T22:31:11.345Z,24.27
2019-02-28T22:33:58.197Z,23.77
2019-02-28T22:36:45.022Z,21.30
2019-02-28T22:39:12.655Z,25.67
2019-02-28T22:41:41.622Z,22.80
2019-02-28T22:44:08.852Z,23.67
2019-02-28T22:46:36.040Z,27.40
2019-02-28T22:49:03.240Z,30.30
2019-02-28T22:52:11.290Z,26.10
2019-02-28T22:54:38.480Z,22.47
2019-02-28T23:00:04.901Z,26.20
2019-02-28T23:02:33.909Z,23.23
2019-02-28T23:05:43.769Z,18.13
2019-02-28T23:10:50.211Z,24.10
2019-02-28T23:13:59.976Z,27.37
2019-02-28T23:16:27.177Z,19.60
2019-02-28T23:18:55.002Z,19.30
2019-02-28T23:24:37.040Z,18.73
2019-02-28T23:27:23.649Z,16.37
2019-02-28T23:30:37.685Z,21.63
2019-02-28T23:36:26.501Z,20.03
2019-02-28T23:38:53.698Z,22.03
2019-02-28T23:41:54.497Z,18.00
2019-02-28T23:47:41.586Z,21.03
2019-02-28T23:50:08.685Z,17.53
2019-02-28T23:55:37.441Z,20.03
